sensor_id;sensor_type;location;lat;lon;timestamp;temperature;humidity
10296;DHT22;5193;51.032;6.356;2023-07-30T00:01:44;15.90;99.90
10296;DHT22;5193;51.032;6.356;2023-07-30T00:04:10;15.90;99.90
10296;DHT22;5193;51.032;6.356;2023-07-30T00:06:35;15.80;99.90
10296;DHT22;5193;51.032;6.356;2023-07-30T00:09:01;15.80;99.90
10296;DHT22;5193;51.032;6.356;2023-07-30T00:11:27;15.80;99.90
10296;DHT22;5193;51.032;6.356;2023-07-30T00:13:52;15.70;99.90
10296;DHT22;5193;51.032;6.356;2023-07-30T00:16:18;15.70;99.90
10296;DHT22;5193;51.032;6.356;2023-07-30T00:18:43;15.60;99.90
10296;DHT22;5193;51.032;6.356;2023-07-30T00:21:09;15.50;99.90
10296;DHT22;5193;51.032;6.356;2023-07-30T00:23:35;15.50;99.90
10296;DHT22;5193;51.032;6.356;2023-07-30T00:26:00;15.50;99.90
10296;DHT22;5193;51.032;6.356;2023-07-30T00:28:26;15.40;99.90
10296;DHT22;5193;51.032;6.356;2023-07-30T00:30:52;15.40;99.90
10296;DHT22;5193;51.032;6.356;2023-07-30T00:33:17;15.30;99.90
10296;DHT22;5193;51.032;6.356;2023-07-30T00:35:43;15.30;99.90
10296;DHT22;5193;51.032;6.356;2023-07-30T00:38:09;15.30;99.90
10296;DHT22;5193;51.032;6.356;2023-07-30T00:40:40;15.30;99.90
10296;DHT22;5193;51.032;6.356;2023-07-30T00:43:06;15.30;99.90
10296;DHT22;5193;51.032;6.356;2023-07-30T00:45:31;15.30;99.90
10296;DHT22;5193;51.032;6.356;2023-07-30T00:47:57;15.40;99.90
10296;DHT22;5193;51.032;6.356;2023-07-30T00:50:23;15.40;99.90
10296;DHT22;5193;51.032;6.356;2023-07-30T00:52:49;15.50;99.90
10296;DHT22;5193;51.032;6.356;2023-07-30T00:55:15;15.50;99.90
10296;DHT22;5193;51.032;6.356;2023-07-30T00:57:41;15.50;99.90
10296;DHT22;5193;51.032;6.356;2023-07-30T01:00:08;15.60;99.90
10296;DHT22;5193;51.032;6.356;2023-07-30T01:02:37;15.60;99.90
10296;DHT22;5193;51.032;6.356;2023-07-30T01:05:04;15.70;99.90
10296;DHT22;5193;51.032;6.356;2023-07-30T01:07:30;15.80;99.90
10296;DHT22;5193;51.032;6.356;2023-07-30T01:09:57;15.80;99.90
10296;DHT22;5193;51.032;6.356;2023-07-30T01:12:23;15.80;99.90
10296;DHT22;5193;51.032;6.356;2023-07-30T01:14:50;15.90;99.90
10296;DHT22;5193;51.032;6.356;2023-07-30T01:17:16;16.00;99.90
10296;DHT22;5193;51.032;6.356;2023-07-30T01:19:43;16.00;99.90
10296;DHT22;5193;51.032;6.356;2023-07-30T01:22:09;16.10;99.90
10296;DHT22;5193;51.032;6.356;2023-07-30T01:24:35;16.10;99.90
10296;DHT22;5193;51.032;6.356;2023-07-30T01:27:08;16.20;99.90
10296;DHT22;5193;51.032;6.356;2023-07-30T01:29:51;16.20;99.90
10296;DHT22;5193;51.032;6.356;2023-07-30T01:32:24;16.20;99.90
10296;DHT22;5193;51.032;6.356;2023-07-30T01:34:52;16.30;99.90
10296;DHT22;5193;51.032;6.356;2023-07-30T01:37:20;16.20;99.90
10296;DHT22;5193;51.032;6.356;2023-07-30T01:39:48;16.30;99.90
10296;DHT22;5193;51.032;6.356;2023-07-30T01:42:15;16.30;99.90
10296;DHT22;5193;51.032;6.356;2023-07-30T01:44:41;16.30;99.90
10296;DHT22;5193;51.032;6.356;2023-07-30T01:47:10;16.30;99.90
10296;DHT22;5193;51.032;6.356;2023-07-30T01:49:36;16.30;99.90
10296;DHT22;5193;51.032;6.356;2023-07-30T01:52:02;16.30;99.90
10296;DHT22;5193;51.032;6.356;2023-07-30T01:54:28;16.30;99.90
10296;DHT22;5193;51.032;6.356;2023-07-30T01:56:54;16.30;99.90
10296;DHT22;5193;51.032;6.356;2023-07-30T01:59:19;16.30;99.90
10296;DHT22;5193;51.032;6.356;2023-07-30T02:01:45;16.40;99.90
10296;DHT22;5193;51.032;6.356;2023-07-30T02:04:11;16.40;99.90
10296;DHT22;5193;51.032;6.356;2023-07-30T02:06:37;16.40;99.90
10296;DHT22;5193;51.032;6.356;2023-07-30T02:09:03;16.40;99.90
10296;DHT22;5193;51.032;6.356;2023-07-30T02:11:29;16.40;99.90
10296;DHT22;5193;51.032;6.356;2023-07-30T02:13:55;16.40;99.90
10296;DHT22;5193;51.032;6.356;2023-07-30T02:16:21;16.40;99.90
10296;DHT22;5193;51.032;6.356;2023-07-30T02:18:46;16.40;99.90
10296;DHT22;5193;51.032;6.356;2023-07-30T02:21:12;16.40;99.90
10296;DHT22;5193;51.032;6.356;2023-07-30T02:23:38;16.30;99.90
10296;DHT22;5193;51.032;6.356;2023-07-30T02:26:04;16.30;99.90
10296;DHT22;5193;51.032;6.356;2023-07-30T02:28:30;16.20;99.90
10296;DHT22;5193;51.032;6.356;2023-07-30T02:30:56;16.10;99.90
10296;DHT22;5193;51.032;6.356;2023-07-30T02:33:21;16.00;99.90
10296;DHT22;5193;51.032;6.356;2023-07-30T02:35:47;16.00;99.90
10296;DHT22;5193;51.032;6.356;2023-07-30T02:38:14;15.90;99.90
10296;DHT22;5193;51.032;6.356;2023-07-30T02:40:42;15.80;99.90
10296;DHT22;5193;51.032;6.356;2023-07-30T02:43:08;15.90;99.90
10296;DHT22;5193;51.032;6.356;2023-07-30T02:45:34;15.80;99.90
10296;DHT22;5193;51.032;6.356;2023-07-30T02:48:01;15.90;99.90
10296;DHT22;5193;51.032;6.356;2023-07-30T02:50:33;15.90;99.90
10296;DHT22;5193;51.032;6.356;2023-07-30T02:52:59;15.90;99.90
10296;DHT22;5193;51.032;6.356;2023-07-30T02:55:26;15.90;99.90
10296;DHT22;5193;51.032;6.356;2023-07-30T02:57:53;15.90;99.90
10296;DHT22;5193;51.032;6.356;2023-07-30T03:00:19;15.90;99.90
10296;DHT22;5193;51.032;6.356;2023-07-30T03:02:48;15.90;99.90
10296;DHT22;5193;51.032;6.356;2023-07-30T03:05:16;15.90;99.90
10296;DHT22;5193;51.032;6.356;2023-07-30T03:07:42;15.90;99.90
10296;DHT22;5193;51.032;6.356;2023-07-30T03:10:09;15.90;99.90
10296;DHT22;5193;51.032;6.356;2023-07-30T03:12:35;15.90;99.90
10296;DHT22;5193;51.032;6.356;2023-07-30T03:15:01;15.90;99.90
10296;DHT22;5193;51.032;6.356;2023-07-30T03:17:32;15.80;99.90
10296;DHT22;5193;51.032;6.356;2023-07-30T03:19:59;15.80;99.90
10296;DHT22;5193;51.032;6.356;2023-07-30T03:22:25;15.80;99.90
10296;DHT22;5193;51.032;6.356;2023-07-30T03:24:51;15.80;99.90
10296;DHT22;5193;51.032;6.356;2023-07-30T03:27:17;15.70;99.90
10296;DHT22;5193;51.032;6.356;2023-07-30T03:29:43;15.70;99.90
10296;DHT22;5193;51.032;6.356;2023-07-30T03:32:10;15.60;99.90
10296;DHT22;5193;51.032;6.356;2023-07-30T03:34:36;15.50;99.90
10296;DHT22;5193;51.032;6.356;2023-07-30T03:37:01;15.50;99.90
10296;DHT22;5193;51.032;6.356;2023-07-30T03:39:27;15.40;99.90
10296;DHT22;5193;51.032;6.356;2023-07-30T03:41:53;15.30;99.90
10296;DHT22;5193;51.032;6.356;2023-07-30T03:44:18;15.30;99.90
10296;DHT22;5193;51.032;6.356;2023-07-30T03:46:44;15.20;99.90
10296;DHT22;5193;51.032;6.356;2023-07-30T03:49:10;15.20;99.90
10296;DHT22;5193;51.032;6.356;2023-07-30T03:51:35;15.20;99.90
10296;DHT22;5193;51.032;6.356;2023-07-30T03:54:01;15.10;99.90
10296;DHT22;5193;51.032;6.356;2023-07-30T03:56:27;15.10;99.90
10296;DHT22;5193;51.032;6.356;2023-07-30T03:58:53;15.10;99.90
10296;DHT22;5193;51.032;6.356;2023-07-30T04:01:18;15.10;99.90
10296;DHT22;5193;51.032;6.356;2023-07-30T04:03:44;15.10;99.90
10296;DHT22;5193;51.032;6.356;2023-07-30T04:06:10;15.10;99.90
10296;DHT22;5193;51.032;6.356;2023-07-30T04:08:35;15.10;99.90
10296;DHT22;5193;51.032;6.356;2023-07-30T04:11:01;15.10;99.90
10296;DHT22;5193;51.032;6.356;2023-07-30T04:13:26;15.20;99.90
10296;DHT22;5193;51.032;6.356;2023-07-30T04:15:52;15.20;99.90
10296;DHT22;5193;51.032;6.356;2023-07-30T04:18:18;15.20;99.90
10296;DHT22;5193;51.032;6.356;2023-07-30T04:20:45;15.30;99.90
10296;DHT22;5193;51.032;6.356;2023-07-30T04:23:10;15.30;99.90
10296;DHT22;5193;51.032;6.356;2023-07-30T04:25:36;15.30;99.90
10296;DHT22;5193;51.032;6.356;2023-07-30T04:28:01;15.30;99.90
10296;DHT22;5193;51.032;6.356;2023-07-30T04:30:27;15.30;99.90
10296;DHT22;5193;51.032;6.356;2023-07-30T04:32:53;15.30;99.90
10296;DHT22;5193;51.032;6.356;2023-07-30T04:35:18;15.20;99.90
10296;DHT22;5193;51.032;6.356;2023-07-30T04:37:44;15.20;99.90
10296;DHT22;5193;51.032;6.356;2023-07-30T04:40:10;15.10;99.90
10296;DHT22;5193;51.032;6.356;2023-07-30T04:42:36;15.10;99.90
10296;DHT22;5193;51.032;6.356;2023-07-30T04:45:01;15.00;99.90
10296;DHT22;5193;51.032;6.356;2023-07-30T04:47:27;15.00;99.90
10296;DHT22;5193;51.032;6.356;2023-07-30T04:49:53;14.90;99.90
10296;DHT22;5193;51.032;6.356;2023-07-30T04:52:19;14.90;99.90
10296;DHT22;5193;51.032;6.356;2023-07-30T04:54:45;14.90;99.90
10296;DHT22;5193;51.032;6.356;2023-07-30T04:57:11;14.90;99.90
10296;DHT22;5193;51.032;6.356;2023-07-30T04:59:37;14.90;99.90
10296;DHT22;5193;51.032;6.356;2023-07-30T05:02:03;14.80;99.90
10296;DHT22;5193;51.032;6.356;2023-07-30T05:04:28;14.80;99.90
10296;DHT22;5193;51.032;6.356;2023-07-30T05:06:54;14.80;99.90
10296;DHT22;5193;51.032;6.356;2023-07-30T05:09:20;14.80;99.90
10296;DHT22;5193;51.032;6.356;2023-07-30T05:11:45;14.80;99.90
10296;DHT22;5193;51.032;6.356;2023-07-30T05:14:11;14.80;99.90
10296;DHT22;5193;51.032;6.356;2023-07-30T05:16:37;14.80;99.90
10296;DHT22;5193;51.032;6.356;2023-07-30T05:19:03;14.80;99.90
10296;DHT22;5193;51.032;6.356;2023-07-30T05:21:28;14.80;99.90
10296;DHT22;5193;51.032;6.356;2023-07-30T05:23:54;14.80;99.90
10296;DHT22;5193;51.032;6.356;2023-07-30T05:26:20;14.80;99.90
10296;DHT22;5193;51.032;6.356;2023-07-30T05:28:45;14.80;99.90
10296;DHT22;5193;51.032;6.356;2023-07-30T05:31:11;14.90;99.90
10296;DHT22;5193;51.032;6.356;2023-07-30T05:33:36;14.90;99.90
10296;DHT22;5193;51.032;6.356;2023-07-30T05:36:02;14.90;99.90
10296;DHT22;5193;51.032;6.356;2023-07-30T05:38:28;14.90;99.90
10296;DHT22;5193;51.032;6.356;2023-07-30T05:40:54;14.90;99.90
10296;DHT22;5193;51.032;6.356;2023-07-30T05:43:19;14.90;99.90
10296;DHT22;5193;51.032;6.356;2023-07-30T05:45:45;14.90;99.90
10296;DHT22;5193;51.032;6.356;2023-07-30T05:48:11;14.90;99.90
10296;DHT22;5193;51.032;6.356;2023-07-30T05:50:36;15.00;99.90
10296;DHT22;5193;51.032;6.356;2023-07-30T05:53:02;15.00;99.90
10296;DHT22;5193;51.032;6.356;2023-07-30T05:55:27;15.10;99.90
10296;DHT22;5193;51.032;6.356;2023-07-30T05:57:54;15.10;99.90
10296;DHT22;5193;51.032;6.356;2023-07-30T06:00:20;15.10;99.90
10296;DHT22;5193;51.032;6.356;2023-07-30T06:02:46;15.20;99.90
10296;DHT22;5193;51.032;6.356;2023-07-30T06:05:11;15.30;99.90
10296;DHT22;5193;51.032;6.356;2023-07-30T06:07:37;15.30;99.90
10296;DHT22;5193;51.032;6.356;2023-07-30T06:10:03;15.30;99.90
10296;DHT22;5193;51.032;6.356;2023-07-30T06:12:29;15.30;99.90
10296;DHT22;5193;51.032;6.356;2023-07-30T06:14:54;15.40;99.90
10296;DHT22;5193;51.032;6.356;2023-07-30T06:17:20;15.50;99.90
10296;DHT22;5193;51.032;6.356;2023-07-30T06:19:46;15.50;99.90
10296;DHT22;5193;51.032;6.356;2023-07-30T06:22:12;15.50;99.90
10296;DHT22;5193;51.032;6.356;2023-07-30T06:24:37;15.50;99.90
10296;DHT22;5193;51.032;6.356;2023-07-30T06:27:03;15.60;99.90
10296;DHT22;5193;51.032;6.356;2023-07-30T06:29:29;15.60;99.90
10296;DHT22;5193;51.032;6.356;2023-07-30T06:31:55;15.70;99.90
10296;DHT22;5193;51.032;6.356;2023-07-30T06:34:20;15.70;99.90
10296;DHT22;5193;51.032;6.356;2023-07-30T06:36:49;15.80;99.90
10296;DHT22;5193;51.032;6.356;2023-07-30T06:39:14;15.80;99.90
10296;DHT22;5193;51.032;6.356;2023-07-30T06:41:40;15.90;99.90
10296;DHT22;5193;51.032;6.356;2023-07-30T06:44:06;16.00;99.90
10296;DHT22;5193;51.032;6.356;2023-07-30T06:46:31;16.00;99.90
10296;DHT22;5193;51.032;6.356;2023-07-30T06:48:57;16.10;99.90
10296;DHT22;5193;51.032;6.356;2023-07-30T06:51:27;16.10;99.90
10296;DHT22;5193;51.032;6.356;2023-07-30T06:53:52;16.20;99.90
10296;DHT22;5193;51.032;6.356;2023-07-30T06:56:19;16.30;99.90
10296;DHT22;5193;51.032;6.356;2023-07-30T06:58:44;16.30;99.90
10296;DHT22;5193;51.032;6.356;2023-07-30T07:01:10;16.40;99.90
10296;DHT22;5193;51.032;6.356;2023-07-30T07:03:36;16.40;99.90
10296;DHT22;5193;51.032;6.356;2023-07-30T07:06:01;16.50;99.90
10296;DHT22;5193;51.032;6.356;2023-07-30T07:08:27;16.50;99.90
10296;DHT22;5193;51.032;6.356;2023-07-30T07:10:53;16.60;99.90
10296;DHT22;5193;51.032;6.356;2023-07-30T07:13:18;16.60;99.90
10296;DHT22;5193;51.032;6.356;2023-07-30T07:15:44;16.70;99.90
10296;DHT22;5193;51.032;6.356;2023-07-30T07:18:10;16.70;99.90
10296;DHT22;5193;51.032;6.356;2023-07-30T07:20:37;16.60;99.90
10296;DHT22;5193;51.032;6.356;2023-07-30T07:23:03;16.70;99.90
10296;DHT22;5193;51.032;6.356;2023-07-30T07:25:29;16.70;99.90
10296;DHT22;5193;51.032;6.356;2023-07-30T07:27:55;16.80;99.90
10296;DHT22;5193;51.032;6.356;2023-07-30T07:30:21;16.80;99.90
10296;DHT22;5193;51.032;6.356;2023-07-30T07:32:47;16.90;99.90
10296;DHT22;5193;51.032;6.356;2023-07-30T07:35:18;16.90;99.90
10296;DHT22;5193;51.032;6.356;2023-07-30T07:37:44;17.00;99.90
10296;DHT22;5193;51.032;6.356;2023-07-30T07:40:10;17.00;99.90
10296;DHT22;5193;51.032;6.356;2023-07-30T07:42:37;17.10;99.90
10296;DHT22;5193;51.032;6.356;2023-07-30T07:45:04;17.10;99.90
10296;DHT22;5193;51.032;6.356;2023-07-30T07:47:30;17.10;99.90
10296;DHT22;5193;51.032;6.356;2023-07-30T07:49:56;17.20;99.90
10296;DHT22;5193;51.032;6.356;2023-07-30T07:52:21;17.20;99.90
10296;DHT22;5193;51.032;6.356;2023-07-30T07:54:47;17.10;99.90
10296;DHT22;5193;51.032;6.356;2023-07-30T07:57:13;17.10;99.90
10296;DHT22;5193;51.032;6.356;2023-07-30T07:59:38;17.10;99.90
10296;DHT22;5193;51.032;6.356;2023-07-30T08:02:04;17.10;99.90
10296;DHT22;5193;51.032;6.356;2023-07-30T08:04:30;17.10;99.90
10296;DHT22;5193;51.032;6.356;2023-07-30T08:06:56;17.10;99.90
10296;DHT22;5193;51.032;6.356;2023-07-30T08:09:25;17.20;99.90
10296;DHT22;5193;51.032;6.356;2023-07-30T08:11:51;17.20;99.90
10296;DHT22;5193;51.032;6.356;2023-07-30T08:14:16;17.20;99.90
10296;DHT22;5193;51.032;6.356;2023-07-30T08:16:42;17.20;99.90
10296;DHT22;5193;51.032;6.356;2023-07-30T08:19:08;17.30;99.90
10296;DHT22;5193;51.032;6.356;2023-07-30T08:21:34;17.40;99.90
10296;DHT22;5193;51.032;6.356;2023-07-30T08:24:00;17.50;99.90
10296;DHT22;5193;51.032;6.356;2023-07-30T08:26:26;17.50;99.90
10296;DHT22;5193;51.032;6.356;2023-07-30T08:28:52;17.60;99.90
10296;DHT22;5193;51.032;6.356;2023-07-30T08:31:18;17.70;99.90
10296;DHT22;5193;51.032;6.356;2023-07-30T08:33:44;17.70;99.90
10296;DHT22;5193;51.032;6.356;2023-07-30T08:36:10;17.80;99.90
10296;DHT22;5193;51.032;6.356;2023-07-30T08:38:36;17.90;99.90
10296;DHT22;5193;51.032;6.356;2023-07-30T08:41:02;17.90;99.90
10296;DHT22;5193;51.032;6.356;2023-07-30T08:43:28;18.00;99.90
10296;DHT22;5193;51.032;6.356;2023-07-30T08:45:55;17.90;99.90
10296;DHT22;5193;51.032;6.356;2023-07-30T08:48:21;17.90;99.90
10296;DHT22;5193;51.032;6.356;2023-07-30T08:50:48;17.90;99.90
10296;DHT22;5193;51.032;6.356;2023-07-30T08:53:15;17.90;99.90
10296;DHT22;5193;51.032;6.356;2023-07-30T08:55:42;18.00;99.90
10296;DHT22;5193;51.032;6.356;2023-07-30T08:58:13;18.00;99.90
10296;DHT22;5193;51.032;6.356;2023-07-30T09:00:41;18.00;99.90
10296;DHT22;5193;51.032;6.356;2023-07-30T09:03:11;18.00;99.90
10296;DHT22;5193;51.032;6.356;2023-07-30T09:05:42;18.10;99.90
10296;DHT22;5193;51.032;6.356;2023-07-30T09:08:08;18.10;99.90
10296;DHT22;5193;51.032;6.356;2023-07-30T09:10:35;18.20;99.90
10296;DHT22;5193;51.032;6.356;2023-07-30T09:13:02;18.20;99.90
10296;DHT22;5193;51.032;6.356;2023-07-30T09:15:36;18.30;99.90
10296;DHT22;5193;51.032;6.356;2023-07-30T09:18:07;18.50;99.90
10296;DHT22;5193;51.032;6.356;2023-07-30T09:20:43;18.50;99.90
10296;DHT22;5193;51.032;6.356;2023-07-30T09:23:11;18.60;99.90
10296;DHT22;5193;51.032;6.356;2023-07-30T09:25:38;18.70;99.90
10296;DHT22;5193;51.032;6.356;2023-07-30T09:28:05;18.80;99.90
10296;DHT22;5193;51.032;6.356;2023-07-30T09:30:35;18.80;99.90
10296;DHT22;5193;51.032;6.356;2023-07-30T09:33:03;18.90;99.90
10296;DHT22;5193;51.032;6.356;2023-07-30T09:35:32;19.00;99.90
10296;DHT22;5193;51.032;6.356;2023-07-30T09:38:03;19.10;99.90
10296;DHT22;5193;51.032;6.356;2023-07-30T09:40:41;19.10;99.90
10296;DHT22;5193;51.032;6.356;2023-07-30T09:43:09;19.40;99.90
10296;DHT22;5193;51.032;6.356;2023-07-30T09:45:37;19.70;99.90
10296;DHT22;5193;51.032;6.356;2023-07-30T09:48:07;19.90;99.90
10296;DHT22;5193;51.032;6.356;2023-07-30T09:50:37;20.20;99.90
10296;DHT22;5193;51.032;6.356;2023-07-30T09:53:04;20.50;99.90
10296;DHT22;5193;51.032;6.356;2023-07-30T09:55:30;20.50;99.90
10296;DHT22;5193;51.032;6.356;2023-07-30T09:58:00;20.50;99.90
10296;DHT22;5193;51.032;6.356;2023-07-30T10:00:27;20.50;99.90
10296;DHT22;5193;51.032;6.356;2023-07-30T10:03:01;20.50;99.90
10296;DHT22;5193;51.032;6.356;2023-07-30T10:05:32;20.50;99.90
10296;DHT22;5193;51.032;6.356;2023-07-30T10:08:11;20.50;99.90
10296;DHT22;5193;51.032;6.356;2023-07-30T10:10:39;20.50;99.90
10296;DHT22;5193;51.032;6.356;2023-07-30T10:13:07;20.60;99.90
10296;DHT22;5193;51.032;6.356;2023-07-30T10:15:37;20.60;99.90
10296;DHT22;5193;51.032;6.356;2023-07-30T10:18:04;20.70;99.90
10296;DHT22;5193;51.032;6.356;2023-07-30T10:20:31;20.80;99.90
10296;DHT22;5193;51.032;6.356;2023-07-30T10:22:58;21.00;99.90
10296;DHT22;5193;51.032;6.356;2023-07-30T10:25:30;21.10;99.90
10296;DHT22;5193;51.032;6.356;2023-07-30T10:27:57;21.10;99.90
10296;DHT22;5193;51.032;6.356;2023-07-30T10:30:30;21.30;99.90
10296;DHT22;5193;51.032;6.356;2023-07-30T10:35:53;21.50;99.90
10296;DHT22;5193;51.032;6.356;2023-07-30T10:38:28;21.60;99.90
10296;DHT22;5193;51.032;6.356;2023-07-30T10:41:05;21.70;99.90
10296;DHT22;5193;51.032;6.356;2023-07-30T10:43:37;21.60;99.90
10296;DHT22;5193;51.032;6.356;2023-07-30T10:46:04;21.50;99.90
10296;DHT22;5193;51.032;6.356;2023-07-30T10:48:42;21.50;99.90
10296;DHT22;5193;51.032;6.356;2023-07-30T10:51:16;21.40;99.90
10296;DHT22;5193;51.032;6.356;2023-07-30T10:53:46;21.30;99.90
10296;DHT22;5193;51.032;6.356;2023-07-30T10:56:13;21.30;99.90
10296;DHT22;5193;51.032;6.356;2023-07-30T10:58:53;21.30;99.90
10296;DHT22;5193;51.032;6.356;2023-07-30T11:01:19;21.20;99.90
10296;DHT22;5193;51.032;6.356;2023-07-30T11:03:49;21.10;99.90
10296;DHT22;5193;51.032;6.356;2023-07-30T11:06:25;21.20;99.90
10296;DHT22;5193;51.032;6.356;2023-07-30T11:08:52;21.20;99.90
10296;DHT22;5193;51.032;6.356;2023-07-30T11:11:18;21.20;99.90
10296;DHT22;5193;51.032;6.356;2023-07-30T11:13:46;21.10;99.90
10296;DHT22;5193;51.032;6.356;2023-07-30T11:16:12;21.10;99.90
10296;DHT22;5193;51.032;6.356;2023-07-30T11:18:39;21.10;99.90
10296;DHT22;5193;51.032;6.356;2023-07-30T11:21:18;21.20;99.90
10296;DHT22;5193;51.032;6.356;2023-07-30T11:23:45;21.20;99.90
10296;DHT22;5193;51.032;6.356;2023-07-30T11:26:32;21.20;99.90
10296;DHT22;5193;51.032;6.356;2023-07-30T11:29:19;21.10;99.90
10296;DHT22;5193;51.032;6.356;2023-07-30T11:31:47;21.10;99.90
10296;DHT22;5193;51.032;6.356;2023-07-30T11:34:14;20.90;99.90
10296;DHT22;5193;51.032;6.356;2023-07-30T11:36:41;20.70;99.90
10296;DHT22;5193;51.032;6.356;2023-07-30T11:39:16;20.40;99.90
10296;DHT22;5193;51.032;6.356;2023-07-30T11:41:43;20.20;99.90
10296;DHT22;5193;51.032;6.356;2023-07-30T11:44:09;19.90;99.90
10296;DHT22;5193;51.032;6.356;2023-07-30T11:46:59;19.70;99.90
10296;DHT22;5193;51.032;6.356;2023-07-30T11:52:26;19.50;99.90
10296;DHT22;5193;51.032;6.356;2023-07-30T11:55:05;19.60;99.90
10296;DHT22;5193;51.032;6.356;2023-07-30T11:57:35;19.70;99.90
10296;DHT22;5193;51.032;6.356;2023-07-30T12:00:02;19.80;99.90
10296;DHT22;5193;51.032;6.356;2023-07-30T12:02:30;19.90;99.90
10296;DHT22;5193;51.032;6.356;2023-07-30T12:04:56;20.00;99.90
10296;DHT22;5193;51.032;6.356;2023-07-30T12:07:42;20.20;99.90
10296;DHT22;5193;51.032;6.356;2023-07-30T12:10:12;20.30;99.90
10296;DHT22;5193;51.032;6.356;2023-07-30T12:12:46;20.40;99.90
10296;DHT22;5193;51.032;6.356;2023-07-30T12:15:23;20.60;99.90
10296;DHT22;5193;51.032;6.356;2023-07-30T12:17:49;20.70;99.90
10296;DHT22;5193;51.032;6.356;2023-07-30T12:20:16;20.70;99.90
10296;DHT22;5193;51.032;6.356;2023-07-30T12:22:48;20.90;99.90
10296;DHT22;5193;51.032;6.356;2023-07-30T12:25:16;20.80;99.90
10296;DHT22;5193;51.032;6.356;2023-07-30T12:27:56;20.80;99.90
10296;DHT22;5193;51.032;6.356;2023-07-30T12:30:22;20.70;99.90
10296;DHT22;5193;51.032;6.356;2023-07-30T12:32:49;20.50;99.90
10296;DHT22;5193;51.032;6.356;2023-07-30T12:35:16;20.40;99.90
10296;DHT22;5193;51.032;6.356;2023-07-30T12:37:47;20.40;99.90
10296;DHT22;5193;51.032;6.356;2023-07-30T12:40:20;20.50;99.90
10296;DHT22;5193;51.032;6.356;2023-07-30T12:42:47;20.60;99.90
10296;DHT22;5193;51.032;6.356;2023-07-30T12:45:23;20.70;99.90
10296;DHT22;5193;51.032;6.356;2023-07-30T12:47:50;20.70;99.90
10296;DHT22;5193;51.032;6.356;2023-07-30T12:50:16;20.90;99.90
10296;DHT22;5193;51.032;6.356;2023-07-30T12:52:41;21.00;99.90
10296;DHT22;5193;51.032;6.356;2023-07-30T12:55:08;21.20;99.90
10296;DHT22;5193;51.032;6.356;2023-07-30T12:58:08;21.30;99.90
10296;DHT22;5193;51.032;6.356;2023-07-30T13:00:34;21.50;99.90
10296;DHT22;5193;51.032;6.356;2023-07-30T13:03:00;21.60;99.90
10296;DHT22;5193;51.032;6.356;2023-07-30T13:05:28;21.70;99.90
10296;DHT22;5193;51.032;6.356;2023-07-30T13:07:57;21.90;99.90
10296;DHT22;5193;51.032;6.356;2023-07-30T13:10:23;22.00;99.90
10296;DHT22;5193;51.032;6.356;2023-07-30T13:12:49;22.20;99.90
10296;DHT22;5193;51.032;6.356;2023-07-30T13:15:25;22.20;99.90
10296;DHT22;5193;51.032;6.356;2023-07-30T13:17:53;22.20;99.90
10296;DHT22;5193;51.032;6.356;2023-07-30T13:23:29;22.10;99.90
10296;DHT22;5193;51.032;6.356;2023-07-30T13:26:11;22.10;99.90
10296;DHT22;5193;51.032;6.356;2023-07-30T13:28:37;22.00;99.90
10296;DHT22;5193;51.032;6.356;2023-07-30T13:31:03;21.90;99.90
10296;DHT22;5193;51.032;6.356;2023-07-30T13:33:46;21.80;99.90
10296;DHT22;5193;51.032;6.356;2023-07-30T13:36:14;21.90;99.90
10296;DHT22;5193;51.032;6.356;2023-07-30T13:38:40;22.00;99.90
10296;DHT22;5193;51.032;6.356;2023-07-30T13:41:06;22.20;99.90
10296;DHT22;5193;51.032;6.356;2023-07-30T13:43:35;22.40;99.90
10296;DHT22;5193;51.032;6.356;2023-07-30T13:46:02;22.60;99.90
10296;DHT22;5193;51.032;6.356;2023-07-30T13:48:28;22.70;99.90
10296;DHT22;5193;51.032;6.356;2023-07-30T13:50:54;22.90;99.90
10296;DHT22;5193;51.032;6.356;2023-07-30T13:53:22;23.00;99.90
10296;DHT22;5193;51.032;6.356;2023-07-30T13:56:15;23.10;99.90
10296;DHT22;5193;51.032;6.356;2023-07-30T13:58:41;23.30;99.90
10296;DHT22;5193;51.032;6.356;2023-07-30T14:01:07;23.30;99.90
10296;DHT22;5193;51.032;6.356;2023-07-30T14:03:34;23.30;99.90
10296;DHT22;5193;51.032;6.356;2023-07-30T14:06:01;23.30;99.90
10296;DHT22;5193;51.032;6.356;2023-07-30T14:08:27;23.40;99.90
10296;DHT22;5193;51.032;6.356;2023-07-30T14:10:53;23.40;99.90
10296;DHT22;5193;51.032;6.356;2023-07-30T14:13:26;23.50;99.90
10296;DHT22;5193;51.032;6.356;2023-07-30T14:15:52;23.50;99.90
10296;DHT22;5193;51.032;6.356;2023-07-30T14:18:18;23.70;99.90
10296;DHT22;5193;51.032;6.356;2023-07-30T14:20:44;23.80;99.90
10296;DHT22;5193;51.032;6.356;2023-07-30T14:23:11;23.90;99.90
10296;DHT22;5193;51.032;6.356;2023-07-30T14:25:38;24.10;99.90
10296;DHT22;5193;51.032;6.356;2023-07-30T14:28:04;24.00;99.90
10296;DHT22;5193;51.032;6.356;2023-07-30T14:30:31;24.00;99.90
10296;DHT22;5193;51.032;6.356;2023-07-30T14:32:57;23.90;99.90
10296;DHT22;5193;51.032;6.356;2023-07-30T14:35:26;23.90;99.90
10296;DHT22;5193;51.032;6.356;2023-07-30T14:37:52;23.90;99.90
10296;DHT22;5193;51.032;6.356;2023-07-30T14:40:17;23.90;99.90
10296;DHT22;5193;51.032;6.356;2023-07-30T14:43:10;23.80;99.90
10296;DHT22;5193;51.032;6.356;2023-07-30T14:45:36;23.80;99.90
10296;DHT22;5193;51.032;6.356;2023-07-30T14:48:02;23.80;99.90
10296;DHT22;5193;51.032;6.356;2023-07-30T14:51:02;23.80;99.90
10296;DHT22;5193;51.032;6.356;2023-07-30T14:53:27;23.80;99.90
10296;DHT22;5193;51.032;6.356;2023-07-30T14:58:41;23.90;99.90
10296;DHT22;5193;51.032;6.356;2023-07-30T15:01:07;23.80;99.90
10296;DHT22;5193;51.032;6.356;2023-07-30T15:03:32;23.80;99.90
10296;DHT22;5193;51.032;6.356;2023-07-30T15:05:58;23.70;99.90
10296;DHT22;5193;51.032;6.356;2023-07-30T15:08:24;23.80;99.90
10296;DHT22;5193;51.032;6.356;2023-07-30T15:10:50;23.80;99.90
10296;DHT22;5193;51.032;6.356;2023-07-30T15:13:15;23.90;99.90
10296;DHT22;5193;51.032;6.356;2023-07-30T15:15:54;24.00;99.90
10296;DHT22;5193;51.032;6.356;2023-07-30T15:18:20;24.30;99.90
10296;DHT22;5193;51.032;6.356;2023-07-30T15:20:47;24.30;99.90
10296;DHT22;5193;51.032;6.356;2023-07-30T15:23:13;24.30;99.90
10296;DHT22;5193;51.032;6.356;2023-07-30T15:25:38;24.40;99.90
10296;DHT22;5193;51.032;6.356;2023-07-30T15:28:04;24.30;99.90
10296;DHT22;5193;51.032;6.356;2023-07-30T15:30:30;24.20;99.90
10296;DHT22;5193;51.032;6.356;2023-07-30T15:32:56;24.10;99.90
10296;DHT22;5193;51.032;6.356;2023-07-30T15:35:22;23.90;99.90
10296;DHT22;5193;51.032;6.356;2023-07-30T15:37:48;23.80;99.90
10296;DHT22;5193;51.032;6.356;2023-07-30T15:40:14;23.70;99.90
10296;DHT22;5193;51.032;6.356;2023-07-30T15:42:40;23.70;99.90
10296;DHT22;5193;51.032;6.356;2023-07-30T15:45:06;23.80;99.90
10296;DHT22;5193;51.032;6.356;2023-07-30T15:47:32;23.90;99.90
10296;DHT22;5193;51.032;6.356;2023-07-30T15:49:58;24.10;99.90
10296;DHT22;5193;51.032;6.356;2023-07-30T15:52:29;24.10;99.90
10296;DHT22;5193;51.032;6.356;2023-07-30T15:54:55;24.10;99.90
10296;DHT22;5193;51.032;6.356;2023-07-30T15:57:21;24.00;99.90
10296;DHT22;5193;51.032;6.356;2023-07-30T15:59:47;24.00;99.90